^^
Albertville, AL Historical Data
 
Daily Summary for April 25, 2019 Units:  English    Metric   Both
Daily Weekly Monthly Yearly Custom
  Current: High: Low: Average:
Temperature: 60.0 °F 76.0 °F 60.0 °F 65.2 °F
Dew Point: 58.0 °F 64.3 °F 54.3 °F 60 °F
Humidity: 93% 93% 62% 84%
Wind Speed: 6.0mph 9.0mph 0.0mph 1.8mph
Wind Gust: 13.0mph 17.0mph - -
WindSE - - South
Pressure: 29.74 in 29.90 in 29.74 in -
Precipitation: 0.23 in      
Historical Graphs
 
 
Tabular Data for April 25, 2019
Time Temperature Dew Point Pressure Wind Wind Speed Wind Gust Humidity Rainfall Rate (Hourly) solar
00:00 62.3 °F 54.3 °F 29.90 in Calm     75% 0.00 in 0.00 W/m2
00:05 62.2 °F 54.5 °F 29.90 in Calm   1.0 mph 76% 0.00 in 0.00 W/m2
00:10 62.3 °F 54.6 °F 29.90 in Calm   3.0 mph 76% 0.00 in 0.00 W/m2
00:15 62.3 °F 55.0 °F 29.90 in Calm   1.0 mph 77% 0.00 in 0.00 W/m2
00:20 62.3 °F 55.0 °F 29.90 in Calm     77% 0.00 in 0.00 W/m2
00:25 62.3 °F 55.7 °F 29.90 in Calm     79% 0.00 in 0.00 W/m2
00:30 62.4 °F 55.8 °F 29.90 in Calm     79% 0.00 in 0.00 W/m2
00:35 62.4 °F 55.8 °F 29.90 in Calm     79% 0.00 in 0.00 W/m2
00:40 62.5 °F 55.9 °F 29.89 in Calm     79% 0.00 in 0.00 W/m2
00:45 62.5 °F 55.9 °F 29.90 in Calm     79% 0.00 in 0.00 W/m2
00:50 62.5 °F 55.9 °F 29.90 in Calm     79% 0.00 in 0.00 W/m2
00:55 62.5 °F 55.9 °F 29.90 in Calm     79% 0.00 in 0.00 W/m2
01:00 62.5 °F 55.9 °F 29.90 in Calm     79% 0.00 in 0.00 W/m2
01:05 62.5 °F 55.9 °F 29.89 in Calm   1.0 mph 79% 0.00 in 0.00 W/m2
01:10 62.5 °F 56.2 °F 29.89 in Calm   2.0 mph 80% 0.00 in 0.00 W/m2
01:15 62.5 °F 56.2 °F 29.89 in Calm   1.0 mph 80% 0.00 in 0.00 W/m2
01:20 62.5 °F 56.2 °F 29.89 in Calm   2.0 mph 80% 0.00 in 0.00 W/m2
01:25 62.5 °F 56.6 °F 29.89 in Calm   2.0 mph 81% 0.00 in 0.00 W/m2
01:30 62.5 °F 56.6 °F 29.89 in Calm   3.0 mph 81% 0.00 in 0.00 W/m2
01:35 62.4 °F 56.5 °F 29.88 in Calm   3.0 mph 81% 0.00 in 0.00 W/m2
01:40 62.4 °F 56.5 °F 29.88 in Calm   2.0 mph 81% 0.00 in 0.00 W/m2
01:45 62.4 °F 56.8 °F 29.88 in Calm   2.0 mph 82% 0.00 in 0.00 W/m2
01:50 62.4 °F 56.8 °F 29.87 in Calm   3.0 mph 82% 0.00 in 0.00 W/m2
01:55 62.4 °F 56.8 °F 29.87 in Calm   1.0 mph 82% 0.00 in 0.00 W/m2
02:00 62.4 °F 57.2 °F 29.87 in Calm     83% 0.00 in 0.00 W/m2
02:05 62.4 °F 57.2 °F 29.87 in Calm   2.0 mph 83% 0.00 in 0.00 W/m2
02:10 62.4 °F 57.2 °F 29.87 in Calm   2.0 mph 83% 0.00 in 0.00 W/m2
02:15 62.5 °F 57.6 °F 29.87 in Calm   1.0 mph 84% 0.00 in 0.00 W/m2
02:20 62.5 °F 57.6 °F 29.87 in Calm     84% 0.00 in 0.00 W/m2
02:25 62.5 °F 57.9 °F 29.86 in Calm   2.0 mph 85% 0.00 in 0.00 W/m2
02:30 62.6 °F 58.0 °F 29.87 in Calm     85% 0.00 in 0.00 W/m2
02:35 62.6 °F 58.0 °F 29.86 in Calm     85% 0.00 in 0.00 W/m2
02:40 62.5 °F 57.9 °F 29.86 in Calm   1.0 mph 85% 0.00 in 0.00 W/m2
02:45 62.5 °F 57.9 °F 29.86 in Calm   2.0 mph 85% 0.00 in 0.00 W/m2
02:50 62.5 °F 57.9 °F 29.86 in Calm   1.0 mph 85% 0.00 in 0.00 W/m2
02:55 62.5 °F 57.9 °F 29.86 in Calm     85% 0.00 in 0.00 W/m2
03:00 62.5 °F 57.9 °F 29.86 in Calm   3.0 mph 85% 0.00 in 0.00 W/m2
03:05 62.4 °F 57.8 °F 29.86 in Calm     85% 0.00 in 0.00 W/m2
03:10 62.4 °F 57.8 °F 29.86 in Calm     85% 0.00 in 0.00 W/m2
03:15 62.3 °F 57.7 °F 29.87 in Calm     85% 0.00 in 0.00 W/m2
03:20 62.3 °F 57.7 °F 29.87 in Calm     85% 0.00 in 0.00 W/m2
03:25 62.2 °F 57.6 °F 29.87 in Calm     85% 0.00 in 0.00 W/m2
03:30 62.2 °F 57.6 °F 29.87 in Calm   1.0 mph 85% 0.00 in 0.00 W/m2
03:35 62.1 °F 57.5 °F 29.87 in Calm     85% 0.00 in 0.00 W/m2
03:40 62.0 °F 57.4 °F 29.87 in Calm   1.0 mph 85% 0.00 in 0.00 W/m2
03:45 62.0 °F 57.4 °F 29.87 in Calm   2.0 mph 85% 0.00 in 0.00 W/m2
03:50 61.9 °F 57.7 °F 29.87 in Calm   3.0 mph 86% 0.00 in 0.00 W/m2
03:55 61.8 °F 57.6 °F 29.87 in Calm   2.0 mph 86% 0.00 in 0.00 W/m2
04:00 61.8 °F 57.6 °F 29.87 in Calm     86% 0.00 in 0.00 W/m2
04:05 61.7 °F 57.5 °F 29.88 in Calm     86% 0.00 in 0.00 W/m2
04:10 61.7 °F 57.8 °F 29.87 in Calm   3.0 mph 87% 0.00 in 0.00 W/m2
04:15 61.7 °F 57.8 °F 29.87 in Calm   1.0 mph 87% 0.00 in 0.00 W/m2
04:20 61.7 °F 58.1 °F 29.87 in Calm   1.0 mph 88% 0.00 in 0.00 W/m2
04:25 61.7 °F 58.4 °F 29.86 in Calm   2.0 mph 89% 0.00 in 0.00 W/m2
04:30 61.8 °F 58.8 °F 29.86 in Calm   2.0 mph 90% 0.00 in 0.00 W/m2
04:35 61.9 °F 58.9 °F 29.86 in Calm   1.0 mph 90% 0.00 in 0.00 W/m2
04:40 61.9 °F 58.9 °F 29.86 in South 1.0 mph 4.0 mph 90% 0.00 in 0.00 W/m2
04:45 62.0 °F 59.0 °F 29.85 in SSE 1.0 mph 3.0 mph 90% 0.00 in 0.00 W/m2
04:50 62.1 °F 59.4 °F 29.85 in Calm   2.0 mph 91% 0.00 in 0.00 W/m2
04:55 62.1 °F 59.4 °F 29.84 in Calm   2.0 mph 91% 0.00 in 0.00 W/m2
05:00 62.2 °F 59.5 °F 29.84 in SSE 1.0 mph 3.0 mph 91% 0.00 in 0.00 W/m2
05:05 62.2 °F 59.8 °F 29.84 in SSE 2.0 mph 3.0 mph 92% 0.00 in 0.00 W/m2
05:10 62.2 °F 59.5 °F 29.85 in Calm   2.0 mph 91% 0.00 in 0.00 W/m2
05:15 62.2 °F 59.5 °F 29.85 in Calm   2.0 mph 91% 0.00 in 0.00 W/m2
05:20 62.2 °F 59.5 °F 29.86 in Calm   2.0 mph 91% 0.00 in 0.00 W/m2
05:25 62.3 °F 59.6 °F 29.86 in Calm   1.0 mph 91% 0.00 in 0.00 W/m2
05:30 62.2 °F 59.5 °F 29.86 in Calm     91% 0.00 in 0.00 W/m2
05:35 62.2 °F 59.5 °F 29.86 in Calm   3.0 mph 91% 0.00 in 0.00 W/m2
05:40 62.2 °F 59.8 °F 29.87 in Calm   2.0 mph 92% 0.00 in 0.00 W/m2
05:45 62.2 °F 59.5 °F 29.87 in Calm   3.0 mph 91% 0.00 in 0.00 W/m2
05:50 62.2 °F 59.5 °F 29.86 in Calm   2.0 mph 91% 0.00 in 0.00 W/m2
05:55 62.1 °F 59.4 °F 29.86 in Calm   2.0 mph 91% 0.00 in 0.00 W/m2
06:00 62.1 °F 59.4 °F 29.86 in Calm   2.0 mph 91% 0.00 in 0.00 W/m2
06:05 62.0 °F 59.3 °F 29.86 in Calm   2.0 mph 91% 0.00 in 7.00 W/m2
06:10 62.0 °F 59.3 °F 29.86 in Calm   2.0 mph 91% 0.00 in 8.00 W/m2
06:15 62.0 °F 59.6 °F 29.87 in Calm   3.0 mph 92% 0.00 in 10.00 W/m2
06:20 62.0 °F 59.6 °F 29.86 in SSE 1.0 mph 3.0 mph 92% 0.00 in 14.00 W/m2
06:25 62.0 °F 59.6 °F 29.86 in SSE 1.0 mph 3.0 mph 92% 0.00 in 20.00 W/m2
06:30 62.0 °F 59.6 °F 29.86 in SSE 1.0 mph 3.0 mph 92% 0.00 in 22.00 W/m2
06:35 62.1 °F 60.0 °F 29.86 in SSE 1.0 mph 2.0 mph 93% 0.00 in 25.00 W/m2
06:40 62.2 °F 60.1 °F 29.85 in SSE 2.0 mph 4.0 mph 93% 0.00 in 36.00 W/m2
06:45 62.2 °F 60.1 °F 29.86 in SSE 2.0 mph 4.0 mph 93% 0.00 in 43.00 W/m2
06:50 62.2 °F 60.1 °F 29.86 in SSE 2.0 mph 4.0 mph 93% 0.00 in 43.00 W/m2
06:55 62.2 °F 60.1 °F 29.88 in SSE 2.0 mph 6.0 mph 93% 0.00 in 47.00 W/m2
07:00 62.2 °F 60.1 °F 29.88 in SSE 2.0 mph 5.0 mph 93% 0.00 in 46.00 W/m2
07:05 62.3 °F 59.9 °F 29.88 in SSE 3.0 mph 5.0 mph 92% 0.00 in 46.00 W/m2
07:10 62.3 °F 59.9 °F 29.88 in SSE 3.0 mph 6.0 mph 92% 0.00 in 47.00 W/m2
07:15 62.3 °F 59.9 °F 29.88 in South 1.0 mph 4.0 mph 92% 0.00 in 47.00 W/m2
07:20 62.3 °F 60.2 °F 29.88 in SE 1.0 mph 3.0 mph 93% 0.00 in 50.00 W/m2
07:25 62.3 °F 60.2 °F 29.88 in SE 2.0 mph 3.0 mph 93% 0.00 in 55.00 W/m2
07:30 62.4 °F 60.3 °F 29.88 in SSE 2.0 mph 4.0 mph 93% 0.00 in 54.00 W/m2
07:35 62.4 °F 60.3 °F 29.87 in SSE 2.0 mph 4.0 mph 93% 0.00 in 61.00 W/m2
07:40 62.5 °F 60.4 °F 29.87 in SSE 2.0 mph 4.0 mph 93% 0.00 in 76.00 W/m2
07:45 62.5 °F 60.4 °F 29.87 in SSE 3.0 mph 5.0 mph 93% 0.00 in 84.00 W/m2
07:50 62.6 °F 60.5 °F 29.87 in SSE 3.0 mph 7.0 mph 93% 0.00 in 89.00 W/m2
07:55 62.7 °F 60.6 °F 29.88 in SSE 3.0 mph 6.0 mph 93% 0.00 in 115.00 W/m2
08:00 62.7 °F 60.6 °F 29.88 in SSE 3.0 mph 6.0 mph 93% 0.00 in 112.00 W/m2
08:05 62.9 °F 60.5 °F 29.87 in SSE 3.0 mph 6.0 mph 92% 0.00 in 97.00 W/m2
08:10 63.0 °F 60.6 °F 29.87 in SE 2.0 mph 3.0 mph 92% 0.00 in 108.00 W/m2
08:15 63.1 °F 60.7 °F 29.87 in SE 2.0 mph 5.0 mph 92% 0.00 in 140.00 W/m2
08:20 63.2 °F 60.8 °F 29.87 in SSE 1.0 mph 4.0 mph 92% 0.00 in 178.00 W/m2
08:25 63.3 °F 60.9 °F 29.88 in SSE 2.0 mph 6.0 mph 92% 0.00 in 240.00 W/m2
08:30 63.6 °F 61.2 °F 29.87 in SSE 2.0 mph 5.0 mph 92% 0.00 in 218.00 W/m2
08:35 63.7 °F 61.3 °F 29.87 in SSE 2.0 mph 6.0 mph 92% 0.00 in 226.00 W/m2
08:40 63.9 °F 61.5 °F 29.87 in SSE 2.0 mph 5.0 mph 92% 0.00 in 263.00 W/m2
08:45 64.2 °F 61.8 °F 29.87 in SSE 1.0 mph 3.0 mph 92% 0.00 in 344.00 W/m2
08:50 64.5 °F 62.1 °F 29.87 in Calm   2.0 mph 92% 0.00 in 307.00 W/m2
08:55 64.8 °F 62.4 °F 29.88 in SSE 1.0 mph 4.0 mph 92% 0.00 in 308.00 W/m2
09:00 65.2 °F 62.5 °F 29.88 in SSE 2.0 mph 6.0 mph 91% 0.00 in 419.00 W/m2
09:05 65.6 °F 62.9 °F 29.88 in SSW 1.0 mph 2.0 mph 91% 0.00 in 408.00 W/m2
09:10 66.0 °F 63.0 °F 29.87 in SE 1.0 mph 5.0 mph 90% 0.00 in 382.00 W/m2
09:15 66.3 °F 63.0 °F 29.87 in SSE 1.0 mph 4.0 mph 89% 0.00 in 344.00 W/m2
09:20 66.8 °F 63.1 °F 29.88 in SSW 1.0 mph 3.0 mph 88% 0.00 in 435.00 W/m2
09:25 67.2 °F 63.5 °F 29.88 in South 1.0 mph 5.0 mph 88% 0.00 in 395.00 W/m2
09:30 67.5 °F 63.5 °F 29.88 in SSE 1.0 mph 4.0 mph 87% 0.00 in 284.00 W/m2
09:35 67.8 °F 63.5 °F 29.88 in SW 1.0 mph 5.0 mph 86% 0.00 in 355.00 W/m2
09:40 68.1 °F 63.4 °F 29.88 in SW 1.0 mph 4.0 mph 85% 0.00 in 277.00 W/m2
09:45 68.3 °F 62.9 °F 29.87 in South 2.0 mph 6.0 mph 83% 0.00 in 233.00 W/m2
09:50 68.4 °F 63.0 °F 29.87 in South 1.0 mph 4.0 mph 83% 0.00 in 228.00 W/m2
09:55 68.6 °F 62.9 °F 29.87 in SSE 2.0 mph 8.0 mph 82% 0.00 in 253.00 W/m2
10:00 68.7 °F 63.0 °F 29.87 in South 2.0 mph 8.0 mph 82% 0.00 in 273.00 W/m2
10:05 68.8 °F 63.1 °F 29.87 in SSW 2.0 mph 6.0 mph 82% 0.00 in 385.00 W/m2
10:10 69.0 °F 63.3 °F 29.88 in SSE 2.0 mph 7.0 mph 82% 0.00 in 382.00 W/m2
10:15 69.3 °F 63.2 °F 29.88 in SSE 2.0 mph 7.0 mph 81% 0.00 in 337.00 W/m2
10:20 69.5 °F 63.1 °F 29.87 in South 2.0 mph 6.0 mph 80% 0.00 in 321.00 W/m2
10:25 69.7 °F 63.2 °F 29.87 in South 1.0 mph 4.0 mph 80% 0.00 in 243.00 W/m2
10:30 69.8 °F 63.3 °F 29.86 in South 1.0 mph 4.0 mph 80% 0.00 in 285.00 W/m2
10:35 70.1 °F 63.6 °F 29.87 in South 3.0 mph 5.0 mph 80% 0.00 in 347.00 W/m2
10:40 70.2 °F 63.4 °F 29.86 in SSE 3.0 mph 7.0 mph 79% 0.00 in 361.00 W/m2
10:45 70.3 °F 63.5 °F 29.86 in SSE 3.0 mph 8.0 mph 79% 0.00 in 314.00 W/m2
10:50 70.4 °F 63.2 °F 29.86 in SSE 2.0 mph 5.0 mph 78% 0.00 in 291.00 W/m2
10:55 70.5 °F 63.3 °F 29.86 in SSE 3.0 mph 6.0 mph 78% 0.00 in 354.00 W/m2
11:00 70.6 °F 63.8 °F 29.86 in SSE 2.0 mph 5.0 mph 79% 0.00 in 413.00 W/m2
11:05 70.8 °F 63.6 °F 29.86 in SSE 2.0 mph 5.0 mph 78% 0.00 in 377.00 W/m2
11:10 70.9 °F 63.7 °F 29.86 in SSE 3.0 mph 6.0 mph 78% 0.00 in 340.00 W/m2
11:15 71.1 °F 64.2 °F 29.86 in South 3.0 mph 7.0 mph 79% 0.00 in 449.00 W/m2
11:20 71.2 °F 63.6 °F 29.86 in SSE 5.0 mph 9.0 mph 77% 0.00 in 542.00 W/m2
11:25 71.5 °F 63.9 °F 29.85 in SSE 3.0 mph 10.0 mph 77% 0.00 in 612.00 W/m2
11:30 71.9 °F 63.5 °F 29.85 in WSW 2.0 mph 7.0 mph 75% 0.00 in 665.00 W/m2
11:35 72.3 °F 63.9 °F 29.85 in NNW 1.0 mph 7.0 mph 75% 0.00 in 545.00 W/m2
11:40 72.6 °F 63.4 °F 29.84 in West 2.0 mph 6.0 mph 73% 0.00 in 799.00 W/m2
11:45 72.9 °F 63.7 °F 29.84 in SW 2.0 mph 5.0 mph 73% 0.00 in 556.00 W/m2
11:50 73.3 °F 64.1 °F 29.84 in South 3.0 mph 7.0 mph 73% 0.00 in 954.00 W/m2
11:55 73.9 °F 64.3 °F 29.84 in SSE 4.0 mph 10.0 mph 72% 0.00 in 1016.00 W/m2
12:00 74.3 °F 63.5 °F 29.84 in South 4.0 mph 10.0 mph 69% 0.00 in 840.00 W/m2
12:05 74.7 °F 63.4 °F 29.84 in West 4.0 mph 10.0 mph 68% 0.00 in 1143.00 W/m2
12:10 75.0 °F 63.7 °F 29.84 in SSE 4.0 mph 10.0 mph 68% 0.00 in 651.00 W/m2
12:15 75.1 °F 62.9 °F 29.84 in SW 4.0 mph 8.0 mph 66% 0.00 in 404.00 W/m2
12:20 75.2 °F 63.5 °F 29.83 in SSE 2.0 mph 6.0 mph 67% 0.00 in 452.00 W/m2
12:25 75.2 °F 63.9 °F 29.83 in SSE 3.0 mph 6.0 mph 68% 0.00 in 546.00 W/m2
12:30 75.4 °F 63.7 °F 29.83 in SW 3.0 mph 8.0 mph 67% 0.00 in 909.00 W/m2
12:35 75.7 °F 63.9 °F 29.82 in SSE 6.0 mph 12.0 mph 67% 0.00 in 729.00 W/m2
12:40 75.7 °F 63.5 °F 29.82 in SSE 7.0 mph 13.0 mph 66% 0.00 in 664.00 W/m2
12:45 75.9 °F 63.3 °F 29.82 in SSE 4.0 mph 8.0 mph 65% 0.00 in 781.00 W/m2
12:50 76.0 °F 62.9 °F 29.82 in SSE 5.0 mph 11.0 mph 64% 0.00 in 534.00 W/m2
12:55 76.0 °F 62.9 °F 29.82 in SSW 3.0 mph 7.0 mph 64% 0.00 in 419.00 W/m2
13:00 75.8 °F 61.8 °F 29.82 in South 6.0 mph 12.0 mph 62% 0.00 in 494.00 W/m2
13:05 75.4 °F 61.5 °F 29.82 in SSE 9.0 mph 17.0 mph 62% 0.00 in 548.00 W/m2
13:10 75.2 °F 61.7 °F 29.82 in SSE 5.0 mph 10.0 mph 63% 0.00 in 537.00 W/m2
13:15 75.3 °F 62.3 °F 29.81 in SSE 4.0 mph 9.0 mph 64% 0.00 in 614.00 W/m2
13:20 75.4 °F 62.8 °F 29.81 in SSE 4.0 mph 7.0 mph 65% 0.00 in 286.00 W/m2
13:25 75.3 °F 63.1 °F 29.81 in SSE 6.0 mph 10.0 mph 66% 0.00 in 307.00 W/m2
13:30 74.7 °F 63.4 °F 29.81 in SSE 9.0 mph 14.0 mph 68% 0.00 in 313.00 W/m2
13:35 74.0 °F 63.2 °F 29.81 in SSE 8.0 mph 14.0 mph 69% 0.00 in 313.00 W/m2
13:40 73.5 °F 63.1 °F 29.81 in SSE 7.0 mph 11.0 mph 70% 0.00 in 363.00 W/m2
13:45 73.3 °F 62.9 °F 29.81 in SSE 8.0 mph 17.0 mph 70% 0.00 in 423.00 W/m2
13:50 73.3 °F 63.3 °F 29.80 in SSE 7.0 mph 15.0 mph 71% 0.00 in 537.00 W/m2
13:55 73.4 °F 63.4 °F 29.81 in SSE 7.0 mph 13.0 mph 71% 0.00 in 568.00 W/m2
14:00 73.4 °F 63.0 °F 29.81 in SSE 7.0 mph 17.0 mph 70% 0.00 in 354.00 W/m2
14:05 73.3 °F 62.1 °F 29.80 in SSE 7.0 mph 13.0 mph 68% 0.00 in 223.00 W/m2
14:10 73.1 °F 62.3 °F 29.80 in SSE 7.0 mph 15.0 mph 69% 0.00 in 121.00 W/m2
14:15 72.8 °F 64.0 °F 29.82 in South 6.0 mph 15.0 mph 74% 0.01 in 42.00 W/m2
14:20 71.8 °F 63.4 °F 29.84 in West 6.0 mph 13.0 mph 75% 0.20 in 41.00 W/m2
14:25 70.2 °F 61.5 °F 29.83 in West 5.0 mph 14.0 mph 74% 0.21 in 184.00 W/m2
14:30 68.6 °F 60.7 °F 29.83 in WNW 4.0 mph 11.0 mph 76% 0.21 in 202.00 W/m2
14:35 67.5 °F 60.8 °F 29.83 in West 2.0 mph 8.0 mph 79% 0.21 in 241.00 W/m2
14:40 66.5 °F 60.5 °F 29.84 in WSW 3.0 mph 7.0 mph 81% 0.21 in 260.00 W/m2
14:45 65.4 °F 60.4 °F 29.83 in West 3.0 mph 9.0 mph 84% 0.21 in 254.00 W/m2
14:50 64.6 °F 60.0 °F 29.84 in WSW 3.0 mph 6.0 mph 85% 0.21 in 277.00 W/m2
14:55 64.2 °F 60.2 °F 29.84 in WSW 2.0 mph 6.0 mph 87% 0.21 in 261.00 W/m2
15:00 63.6 °F 60.0 °F 29.83 in West 2.0 mph 7.0 mph 88% 0.21 in 286.00 W/m2
15:05 63.3 °F 60.0 °F 29.83 in WSW 3.0 mph 10.0 mph 89% 0.21 in 295.00 W/m2
15:10 63.2 °F 59.9 °F 29.84 in WSW 2.0 mph 4.0 mph 89% 0.21 in 228.00 W/m2
15:15 63.1 °F 59.8 °F 29.84 in SSE 1.0 mph 6.0 mph 89% 0.20 in 141.00 W/m2
15:20 62.9 °F 59.6 °F 29.83 in WSW 2.0 mph 6.0 mph 89% 0.01 in 77.00 W/m2
15:25 62.6 °F 59.3 °F 29.83 in WSW 2.0 mph 3.0 mph 89% 0.00 in 62.00 W/m2
15:30 62.3 °F 59.3 °F 29.83 in Calm   2.0 mph 90% 0.00 in 57.00 W/m2
15:35 62.1 °F 59.1 °F 29.82 in Calm   2.0 mph 90% 0.00 in 118.00 W/m2
15:40 62.0 °F 59.0 °F 29.83 in NW 1.0 mph 4.0 mph 90% 0.00 in 70.00 W/m2
15:45 61.8 °F 58.8 °F 29.83 in WNW 2.0 mph 5.0 mph 90% 0.00 in 71.00 W/m2
15:50 61.6 °F 58.9 °F 29.82 in WNW 1.0 mph 4.0 mph 91% 0.00 in 57.00 W/m2
15:55 61.4 °F 58.7 °F 29.82 in WSW 1.0 mph 4.0 mph 91% 0.00 in 49.00 W/m2
16:00 61.3 °F 58.6 °F 29.82 in Calm   2.0 mph 91% 0.00 in 49.00 W/m2
16:05 61.2 °F 58.5 °F 29.82 in Calm   2.0 mph 91% 0.01 in 64.00 W/m2
16:10 61.2 °F 58.5 °F 29.81 in Calm   2.0 mph 91% 0.01 in 93.00 W/m2
16:15 61.2 °F 58.5 °F 29.82 in Calm   2.0 mph 91% 0.01 in 131.00 W/m2
16:20 61.2 °F 58.9 °F 29.81 in Calm   2.0 mph 92% 0.01 in 139.00 W/m2
16:25 61.3 °F 59.0 °F 29.81 in Calm   2.0 mph 92% 0.02 in 132.00 W/m2
16:30 61.3 °F 59.0 °F 29.81 in SW 1.0 mph 4.0 mph 92% 0.02 in 120.00 W/m2
16:35 61.3 °F 59.0 °F 29.80 in South 1.0 mph 4.0 mph 92% 0.02 in 113.00 W/m2
16:40 61.1 °F 58.8 °F 29.80 in SSE 2.0 mph 3.0 mph 92% 0.02 in 102.00 W/m2
16:45 61.1 °F 59.1 °F 29.79 in SSE 1.0 mph 4.0 mph 93% 0.02 in 91.00 W/m2
16:50 61.1 °F 59.1 °F 29.79 in SSE 3.0 mph 5.0 mph 93% 0.02 in 76.00 W/m2
16:55 60.9 °F 58.6 °F 29.79 in SSE 3.0 mph 7.0 mph 92% 0.02 in 59.00 W/m2
17:00 60.7 °F 58.4 °F 29.77 in SE 5.0 mph 8.0 mph 92% 0.02 in 53.00 W/m2
17:05 60.4 °F 58.1 °F 29.76 in SE 6.0 mph 10.0 mph 92% 0.01 in 52.00 W/m2
17:10 60.3 °F 58.0 °F 29.75 in SE 6.0 mph 12.0 mph 92% 0.01 in 56.00 W/m2
17:15 60.2 °F 58.2 °F 29.76 in SSE 5.0 mph 10.0 mph 93% 0.01 in 54.00 W/m2
17:20 60.2 °F 58.2 °F 29.77 in SSE 3.0 mph 6.0 mph 93% 0.01 in 48.00 W/m2
17:25 60.2 °F 58.2 °F 29.77 in South 1.0 mph 4.0 mph 93% 0.00 in 43.00 W/m2
17:30 60.2 °F 58.2 °F 29.76 in SE 3.0 mph 8.0 mph 93% 0.00 in 45.00 W/m2
17:35 60.2 °F 58.2 °F 29.75 in SSE 5.0 mph 9.0 mph 93% 0.00 in 40.00 W/m2
17:40 60.2 °F 58.2 °F 29.75 in SSE 5.0 mph 9.0 mph 93% 0.00 in 36.00 W/m2
17:45 60.0 °F 58.0 °F 29.74 in SE 6.0 mph 13.0 mph 93% 0.00 in 33.00 W/m2
Albertville, AL Weather
Compliments of Weather Underground - 4 mb